createdAt,value
2017-11-30T00:00:49.501Z,80.43
2017-11-30T00:03:17.055Z,79.60
2017-11-30T00:05:44.526Z,79.52
2017-11-30T00:08:12.014Z,79.39
2017-11-30T00:10:39.596Z,79.37
2017-11-30T00:13:07.078Z,79.16
2017-11-30T00:15:34.591Z,79.21
2017-11-30T00:18:02.101Z,79.51
2017-11-30T00:20:29.664Z,79.80
2017-11-30T00:22:57.196Z,79.99
2017-11-30T00:25:24.722Z,80.11
2017-11-30T00:27:52.188Z,80.10
2017-11-30T00:30:19.646Z,80.08
2017-11-30T00:32:47.169Z,80.06
2017-11-30T00:35:14.604Z,80.07
2017-11-30T00:37:42.072Z,80.08
2017-11-30T00:40:09.570Z,79.97
2017-11-30T00:42:48.745Z,79.84
2017-11-30T00:45:16.205Z,79.77
2017-11-30T00:47:44.042Z,79.89
2017-11-30T00:50:11.503Z,79.92
2017-11-30T00:52:38.970Z,80.15
2017-11-30T00:55:06.790Z,80.31
2017-11-30T00:57:34.512Z,80.44
2017-11-30T01:00:03.149Z,80.77
2017-11-30T01:02:30.639Z,80.86
2017-11-30T01:04:58.065Z,81.24
2017-11-30T01:07:25.513Z,81.41
2017-11-30T01:09:52.962Z,81.58
2017-11-30T01:12:20.409Z,81.95
2017-11-30T01:14:47.930Z,82.21
2017-11-30T01:17:15.659Z,82.51
2017-11-30T01:19:43.197Z,82.77
2017-11-30T01:22:10.720Z,82.83
2017-11-30T01:24:38.240Z,82.99
2017-11-30T01:27:05.749Z,82.92
2017-11-30T01:29:33.269Z,82.82
2017-11-30T01:32:00.730Z,83.02
2017-11-30T01:34:28.327Z,82.94
2017-11-30T01:36:55.806Z,82.99
2017-11-30T01:39:23.898Z,83.03
2017-11-30T01:41:51.413Z,83.27
2017-11-30T01:44:18.866Z,83.33
2017-11-30T01:46:46.436Z,83.43
2017-11-30T01:49:13.920Z,83.66
2017-11-30T01:51:41.406Z,83.65
2017-11-30T01:54:08.852Z,83.56
2017-11-30T01:56:36.304Z,83.41
2017-11-30T01:59:03.760Z,83.37
2017-11-30T02:01:31.219Z,83.43
2017-11-30T02:03:58.659Z,83.21
2017-11-30T02:06:26.123Z,83.07
2017-11-30T02:08:53.594Z,83.17
2017-11-30T02:11:21.035Z,83.14
2017-11-30T02:13:48.501Z,83.26
2017-11-30T02:16:16.014Z,83.18
2017-11-30T02:18:43.471Z,83.12
2017-11-30T02:21:10.929Z,83.07
2017-11-30T02:23:38.414Z,83.21
2017-11-30T02:26:05.870Z,83.47
2017-11-30T02:28:33.354Z,83.51
2017-11-30T02:31:00.859Z,83.44
2017-11-30T02:33:28.337Z,83.42
2017-11-30T02:35:55.794Z,83.66
2017-11-30T02:38:23.261Z,83.48
2017-11-30T02:40:50.712Z,83.42
2017-11-30T02:43:18.244Z,83.24
2017-11-30T02:45:55.300Z,83.42
2017-11-30T02:48:22.797Z,83.55
2017-11-30T02:50:50.256Z,83.55
2017-11-30T02:53:17.777Z,83.72
2017-11-30T02:55:45.282Z,83.94
2017-11-30T02:58:12.746Z,83.84
2017-11-30T03:00:40.282Z,83.95
2017-11-30T03:03:07.770Z,83.82
2017-11-30T03:05:35.333Z,83.61
2017-11-30T03:08:02.858Z,83.77
2017-11-30T03:10:30.317Z,84.06
2017-11-30T03:12:57.995Z,83.89
2017-11-30T03:15:25.510Z,83.65
2017-11-30T03:17:53.032Z,83.61
2017-11-30T03:20:20.482Z,83.65
2017-11-30T03:22:48.016Z,83.26
2017-11-30T03:25:15.478Z,82.75
2017-11-30T03:27:43.129Z,82.83
2017-11-30T03:30:10.612Z,83.00
2017-11-30T03:32:38.104Z,83.09
2017-11-30T03:35:05.602Z,82.96
2017-11-30T03:37:33.165Z,82.94
2017-11-30T03:40:00.619Z,83.04
2017-11-30T03:42:28.097Z,82.98
2017-11-30T03:44:55.569Z,83.17
2017-11-30T03:47:23.028Z,83.22
2017-11-30T03:49:50.503Z,83.50
2017-11-30T03:52:18.000Z,83.60
2017-11-30T03:54:45.452Z,83.56
2017-11-30T03:57:12.968Z,83.62
2017-11-30T03:59:40.471Z,83.67
2017-11-30T04:02:08.035Z,83.69
2017-11-30T04:04:35.500Z,83.70
2017-11-30T04:07:02.965Z,83.48
2017-11-30T04:09:30.455Z,83.55
2017-11-30T04:11:58.577Z,83.68
2017-11-30T04:14:26.012Z,83.71
2017-11-30T04:17:07.748Z,83.62
2017-11-30T04:19:35.207Z,83.33
2017-11-30T04:22:02.746Z,83.57
2017-11-30T04:24:30.227Z,83.76
2017-11-30T04:26:57.726Z,83.73
2017-11-30T04:29:25.164Z,83.63
2017-11-30T04:31:52.603Z,83.56
2017-11-30T04:34:20.057Z,83.46
2017-11-30T04:36:47.501Z,83.52
2017-11-30T04:39:14.971Z,83.48
2017-11-30T04:41:42.504Z,83.43
2017-11-30T04:44:09.981Z,83.54
2017-11-30T04:46:37.479Z,83.47
2017-11-30T04:49:04.971Z,83.32
2017-11-30T04:51:32.472Z,83.55
2017-11-30T04:53:59.910Z,83.57
2017-11-30T04:56:27.456Z,83.49
2017-11-30T04:58:55.042Z,83.64
2017-11-30T05:01:22.490Z,83.72
2017-11-30T05:03:49.949Z,83.57
2017-11-30T05:06:17.478Z,83.59
2017-11-30T05:08:44.962Z,83.60
2017-11-30T05:11:12.482Z,83.60
2017-11-30T05:13:39.985Z,83.40
2017-11-30T05:16:07.441Z,83.36
2017-11-30T05:18:34.902Z,83.23
2017-11-30T05:21:02.368Z,83.34
2017-11-30T05:23:29.856Z,83.65
2017-11-30T05:25:57.417Z,83.62
2017-11-30T05:28:24.937Z,83.43
2017-11-30T05:30:52.499Z,83.57
2017-11-30T05:33:20.047Z,83.64
2017-11-30T05:35:47.487Z,83.73
2017-11-30T05:38:14.958Z,83.88
2017-11-30T05:40:42.420Z,83.82
2017-11-30T05:43:09.898Z,83.75
2017-11-30T05:45:37.341Z,83.92
2017-11-30T05:48:04.830Z,83.87
2017-11-30T05:50:32.393Z,83.66
2017-11-30T05:52:59.881Z,83.82
2017-11-30T05:55:27.398Z,83.81
2017-11-30T05:57:54.855Z,83.82
2017-11-30T06:00:22.306Z,83.58
2017-11-30T06:02:49.822Z,83.50
2017-11-30T06:05:17.428Z,83.23
2017-11-30T06:07:45.188Z,83.01
2017-11-30T06:10:12.937Z,83.13
2017-11-30T06:12:40.386Z,83.19
2017-11-30T06:15:07.869Z,83.41
2017-11-30T06:17:35.326Z,83.55
2017-11-30T06:20:02.836Z,83.29
2017-11-30T06:22:30.290Z,83.32
2017-11-30T06:24:57.774Z,83.04
2017-11-30T06:27:25.455Z,82.86
2017-11-30T06:29:53.061Z,82.92
2017-11-30T06:32:20.561Z,82.89
2017-11-30T06:34:48.788Z,82.80
2017-11-30T06:37:16.362Z,82.79
2017-11-30T06:39:43.842Z,82.80
2017-11-30T06:42:11.276Z,82.87
2017-11-30T06:44:38.790Z,82.82
2017-11-30T06:47:06.288Z,82.86
2017-11-30T06:49:33.750Z,82.93
2017-11-30T06:52:01.313Z,82.65
2017-11-30T06:54:28.813Z,82.34
2017-11-30T06:56:56.584Z,82.04
2017-11-30T06:59:24.134Z,82.19
2017-11-30T07:01:51.810Z,82.24
2017-11-30T07:04:19.338Z,82.14
2017-11-30T07:07:01.413Z,82.27
2017-11-30T07:09:29.181Z,82.40
2017-11-30T07:11:56.691Z,82.19
2017-11-30T07:14:27.090Z,82.17
2017-11-30T07:17:13.825Z,82.15
2017-11-30T07:19:41.284Z,81.96
2017-11-30T07:22:08.850Z,82.23
2017-11-30T07:24:36.344Z,82.18
2017-11-30T07:27:04.743Z,81.81
2017-11-30T07:29:32.203Z,81.57
2017-11-30T07:31:59.763Z,81.68
2017-11-30T07:34:28.133Z,81.57
2017-11-30T07:36:55.724Z,81.41
2017-11-30T07:39:23.447Z,81.55
2017-11-30T07:41:51.023Z,81.70
2017-11-30T07:44:18.741Z,81.88
2017-11-30T07:46:46.247Z,81.90
2017-11-30T07:49:13.749Z,82.00
2017-11-30T07:51:41.290Z,81.46
2017-11-30T07:54:08.779Z,81.45
2017-11-30T07:56:36.263Z,81.43
2017-11-30T07:59:03.839Z,81.29
2017-11-30T08:01:31.279Z,81.12
2017-11-30T08:03:58.733Z,80.94
2017-11-30T08:06:31.363Z,80.58
2017-11-30T08:08:58.871Z,80.65
2017-11-30T08:11:26.363Z,80.43
2017-11-30T08:13:54.015Z,80.29
2017-11-30T08:16:31.452Z,80.49
2017-11-30T08:18:58.933Z,80.45
2017-11-30T08:21:26.844Z,80.06
2017-11-30T08:23:54.345Z,79.67
2017-11-30T08:26:21.822Z,79.52
2017-11-30T08:28:49.409Z,79.48
2017-11-30T08:31:16.967Z,79.51
2017-11-30T08:33:44.651Z,79.69
2017-11-30T08:36:13.008Z,79.53
2017-11-30T08:38:40.540Z,79.58
2017-11-30T08:41:07.994Z,79.31
2017-11-30T08:43:35.533Z,79.68
2017-11-30T08:46:03.957Z,79.94
2017-11-30T08:48:31.481Z,79.95
2017-11-30T08:50:58.982Z,79.73
2017-11-30T08:53:26.442Z,79.70
2017-11-30T08:56:03.600Z,79.33
2017-11-30T08:58:31.087Z,79.29
2017-11-30T09:00:58.749Z,79.23
2017-11-30T09:03:26.243Z,79.10
2017-11-30T09:05:53.757Z,78.79
2017-11-30T09:08:21.297Z,78.45
2017-11-30T09:10:48.861Z,78.67
2017-11-30T09:13:16.328Z,78.89
2017-11-30T09:15:43.903Z,79.15
2017-11-30T09:18:11.407Z,79.17
2017-11-30T09:20:38.899Z,79.18
2017-11-30T09:23:06.398Z,78.87
2017-11-30T09:25:34.068Z,78.53
2017-11-30T09:28:02.479Z,78.78
2017-11-30T09:30:30.227Z,78.61
2017-11-30T09:32:57.704Z,78.66
2017-11-30T09:35:25.220Z,78.43
2017-11-30T09:37:52.788Z,77.95
2017-11-30T09:40:21.016Z,77.75
2017-11-30T09:42:48.539Z,77.89
2017-11-30T09:45:16.256Z,77.73
2017-11-30T09:47:44.903Z,77.88
2017-11-30T09:50:13.121Z,77.75
2017-11-30T09:52:40.623Z,77.99
2017-11-30T09:55:08.240Z,78.15
2017-11-30T09:57:35.736Z,78.16
2017-11-30T10:00:03.245Z,78.26
2017-11-30T10:02:30.921Z,78.51
2017-11-30T10:04:58.428Z,78.50
2017-11-30T10:07:30.957Z,78.48
2017-11-30T10:09:58.505Z,78.64
2017-11-30T10:12:26.605Z,78.59
2017-11-30T10:14:54.115Z,78.64
2017-11-30T10:17:21.880Z,78.26
2017-11-30T10:19:49.318Z,78.03
2017-11-30T10:22:17.346Z,77.97
2017-11-30T10:24:44.845Z,78.17
2017-11-30T10:27:12.583Z,78.27
2017-11-30T10:29:40.070Z,78.37
2017-11-30T10:32:07.551Z,78.63
2017-11-30T10:34:35.124Z,78.66
2017-11-30T10:37:16.882Z,78.90
2017-11-30T10:39:44.340Z,79.00
2017-11-30T10:42:11.804Z,79.16
2017-11-30T10:44:39.475Z,79.22
2017-11-30T10:47:07.011Z,79.27
2017-11-30T10:49:34.582Z,79.20
2017-11-30T10:52:02.177Z,78.90
2017-11-30T10:54:30.327Z,78.30
2017-11-30T10:56:57.831Z,78.01
2017-11-30T10:59:25.642Z,77.34
2017-11-30T11:01:53.376Z,77.45
2017-11-30T11:04:21.113Z,77.65
2017-11-30T11:06:48.750Z,77.65
2017-11-30T11:09:16.530Z,77.92
2017-11-30T11:11:44.031Z,78.08
2017-11-30T11:14:11.532Z,78.22
2017-11-30T11:16:39.087Z,78.68
2017-11-30T11:19:06.539Z,79.00
2017-11-30T11:21:34.073Z,78.95
2017-11-30T11:24:01.665Z,79.09
2017-11-30T11:26:38.892Z,78.88
2017-11-30T11:29:06.446Z,78.71
2017-11-30T11:31:34.020Z,79.10
2017-11-30T11:34:01.551Z,78.38
2017-11-30T11:36:34.353Z,78.15
2017-11-30T11:39:02.180Z,77.77
2017-11-30T11:41:30.463Z,77.48
2017-11-30T11:43:57.939Z,77.00
2017-11-30T11:46:25.373Z,76.23
2017-11-30T11:48:52.870Z,75.85
2017-11-30T11:51:20.636Z,74.81
2017-11-30T11:53:48.144Z,72.80
2017-11-30T11:56:16.789Z,71.05
2017-11-30T11:58:45.244Z,70.22
2017-11-30T12:01:12.903Z,69.99
2017-11-30T12:03:40.611Z,70.07
2017-11-30T12:06:22.334Z,69.67
2017-11-30T12:08:49.954Z,69.42
2017-11-30T12:11:17.570Z,70.00
2017-11-30T12:13:45.102Z,70.42
2017-11-30T12:16:12.785Z,70.36
2017-11-30T12:18:40.742Z,70.69
2017-11-30T12:21:08.482Z,70.39
2017-11-30T12:23:35.969Z,70.73
2017-11-30T12:26:03.662Z,70.41
2017-11-30T12:28:31.191Z,70.33
2017-11-30T12:30:58.705Z,70.09
2017-11-30T12:33:26.718Z,71.37
2017-11-30T12:35:54.246Z,71.93
2017-11-30T12:38:21.752Z,73.14
2017-11-30T12:40:49.929Z,73.35
2017-11-30T12:43:17.615Z,73.68
2017-11-30T12:45:45.159Z,73.82
2017-11-30T12:48:12.929Z,73.31
2017-11-30T12:50:40.701Z,72.85
2017-11-30T12:53:08.392Z,72.02
2017-11-30T12:55:36.121Z,71.43
2017-11-30T12:58:04.349Z,71.35
2017-11-30T13:00:31.939Z,70.65
2017-11-30T13:03:00.045Z,70.83
2017-11-30T13:05:28.453Z,71.29
2017-11-30T13:08:10.181Z,71.84
2017-11-30T13:10:38.924Z,72.40
2017-11-30T13:13:06.466Z,72.78
2017-11-30T13:15:33.982Z,73.19
2017-11-30T13:18:01.637Z,73.16
2017-11-30T13:20:29.417Z,72.97
2017-11-30T13:22:56.957Z,73.18
2017-11-30T13:25:24.484Z,73.41
2017-11-30T13:27:52.049Z,73.49
2017-11-30T13:30:19.731Z,73.33
2017-11-30T13:32:47.224Z,73.15
2017-11-30T13:35:14.981Z,73.10
2017-11-30T13:37:47.376Z,73.53
2017-11-30T13:40:15.104Z,73.67
2017-11-30T13:42:42.838Z,74.21
2017-11-30T13:45:10.416Z,74.02
2017-11-30T13:47:38.555Z,74.36
2017-11-30T13:50:06.055Z,74.04
2017-11-30T13:52:33.583Z,73.74
2017-11-30T13:55:01.294Z,73.16
2017-11-30T13:57:28.770Z,73.62
2017-11-30T13:59:56.191Z,73.43
2017-11-30T14:02:23.671Z,73.56
2017-11-30T14:04:51.340Z,73.84
2017-11-30T14:07:18.864Z,74.22
2017-11-30T14:09:46.351Z,74.82
2017-11-30T14:12:13.826Z,74.31
2017-11-30T14:14:41.303Z,73.91
2017-11-30T14:17:08.864Z,73.63
2017-11-30T14:19:36.432Z,73.14
2017-11-30T14:22:03.903Z,73.11
2017-11-30T14:24:32.305Z,73.36
2017-11-30T14:27:00.112Z,73.40
2017-11-30T14:29:27.600Z,73.57
2017-11-30T14:31:55.080Z,73.80
2017-11-30T14:34:22.597Z,73.94
2017-11-30T14:36:50.134Z,74.31
2017-11-30T14:39:17.596Z,74.59
2017-11-30T14:41:45.081Z,74.59
2017-11-30T14:44:12.524Z,74.54
2017-11-30T14:46:40.010Z,74.34
2017-11-30T14:49:07.562Z,74.14
2017-11-30T14:51:35.098Z,74.21
2017-11-30T14:54:02.649Z,74.39
2017-11-30T14:56:30.105Z,74.39
2017-11-30T14:58:57.548Z,74.62
2017-11-30T15:01:25.045Z,74.94
2017-11-30T15:03:52.542Z,75.26
2017-11-30T15:06:20.064Z,75.22
2017-11-30T15:08:47.903Z,75.47
2017-11-30T15:11:15.531Z,75.65
2017-11-30T15:13:43.012Z,75.68
2017-11-30T15:16:10.519Z,75.79
2017-11-30T15:18:37.976Z,76.04
2017-11-30T15:21:05.487Z,76.29
2017-11-30T15:23:34.035Z,76.45
2017-11-30T15:26:01.515Z,76.50
2017-11-30T15:28:29.014Z,76.77
2017-11-30T15:30:56.509Z,76.86
2017-11-30T15:33:24.072Z,76.93
2017-11-30T15:35:51.727Z,77.02
2017-11-30T15:38:19.174Z,77.06
2017-11-30T15:40:46.716Z,77.22
2017-11-30T15:43:14.266Z,77.33
2017-11-30T15:45:41.970Z,77.30
2017-11-30T15:48:09.548Z,77.46
2017-11-30T15:50:37.339Z,77.72
2017-11-30T15:53:04.974Z,77.55
2017-11-30T15:55:32.444Z,77.65
2017-11-30T15:57:59.972Z,77.75
2017-11-30T16:00:27.825Z,77.98
2017-11-30T16:02:55.464Z,77.91
2017-11-30T16:05:23.842Z,78.05
2017-11-30T16:07:51.366Z,77.89
2017-11-30T16:10:19.075Z,78.05
2017-11-30T16:12:46.798Z,78.17
2017-11-30T16:15:14.305Z,78.10
2017-11-30T16:17:41.905Z,78.08
2017-11-30T16:20:10.597Z,78.13
2017-11-30T16:22:38.283Z,78.17
2017-11-30T16:25:05.818Z,78.05
2017-11-30T16:27:33.327Z,78.20
2017-11-30T16:30:00.808Z,78.21
2017-11-30T16:32:28.436Z,78.31
2017-11-30T16:34:55.992Z,78.28
2017-11-30T16:37:23.482Z,78.27
2017-11-30T16:39:51.057Z,78.03
2017-11-30T16:42:18.577Z,78.08
2017-11-30T16:44:46.107Z,78.29
2017-11-30T16:47:13.692Z,78.36
2017-11-30T16:49:41.378Z,78.56
2017-11-30T16:52:09.026Z,78.75
2017-11-30T16:54:36.675Z,78.78
2017-11-30T16:57:09.298Z,78.68
2017-11-30T16:59:40.558Z,78.74
2017-11-30T17:02:08.404Z,78.83
2017-11-30T17:04:36.036Z,78.85
2017-11-30T17:07:13.206Z,78.66
2017-11-30T17:09:40.721Z,78.64
2017-11-30T17:12:08.378Z,78.65
2017-11-30T17:14:35.968Z,78.59
2017-11-30T17:17:03.475Z,78.47
2017-11-30T17:19:31.366Z,78.57
2017-11-30T17:21:59.015Z,78.76
2017-11-30T17:24:26.581Z,78.87
2017-11-30T17:26:58.664Z,78.92
2017-11-30T17:29:26.210Z,78.84
2017-11-30T17:31:53.816Z,79.08
2017-11-30T17:34:22.168Z,78.97
2017-11-30T17:37:01.565Z,79.10
2017-11-30T17:39:29.107Z,79.36
2017-11-30T17:41:56.775Z,79.49
2017-11-30T17:44:24.384Z,79.49
2017-11-30T17:46:52.059Z,79.31
2017-11-30T17:49:19.657Z,79.25
2017-11-30T17:51:47.263Z,79.35
2017-11-30T17:54:15.472Z,79.29
2017-11-30T17:56:43.036Z,79.27
2017-11-30T17:59:10.692Z,79.29
2017-11-30T18:01:39.080Z,79.30
2017-11-30T18:04:06.561Z,79.37
2017-11-30T18:06:48.572Z,79.38
2017-11-30T18:09:16.060Z,79.53
2017-11-30T18:11:43.545Z,79.31
2017-11-30T18:14:11.052Z,79.48
2017-11-30T18:16:38.548Z,79.54
2017-11-30T18:19:06.086Z,79.39
2017-11-30T18:21:33.608Z,79.78
2017-11-30T18:24:01.124Z,79.52
2017-11-30T18:26:28.570Z,79.69
2017-11-30T18:29:06.530Z,79.63
2017-11-30T18:31:34.184Z,79.82
2017-11-30T18:34:01.695Z,79.79
2017-11-30T18:36:29.260Z,79.67
2017-11-30T18:38:56.809Z,79.64
2017-11-30T18:41:24.340Z,79.44
2017-11-30T18:43:51.839Z,79.74
2017-11-30T18:46:19.652Z,79.87
2017-11-30T18:48:47.397Z,79.83
2017-11-30T18:51:14.918Z,79.80
2017-11-30T18:53:42.469Z,79.89
2017-11-30T18:56:10.032Z,79.77
2017-11-30T18:58:37.648Z,79.88
2017-11-30T19:01:05.246Z,79.90
2017-11-30T19:03:32.739Z,79.77
2017-11-30T19:06:00.868Z,79.52
2017-11-30T19:08:28.370Z,79.64
2017-11-30T19:10:56.114Z,79.85
2017-11-30T19:13:23.731Z,79.75
2017-11-30T19:15:51.299Z,79.84
2017-11-30T19:18:18.752Z,80.13
2017-11-30T19:20:46.301Z,80.11
2017-11-30T19:23:13.769Z,80.14
2017-11-30T19:25:41.575Z,80.22
2017-11-30T19:28:10.067Z,80.17
2017-11-30T19:30:37.648Z,79.97
2017-11-30T19:33:05.155Z,80.13
2017-11-30T19:35:32.625Z,80.17
2017-11-30T19:38:00.171Z,79.88
2017-11-30T19:40:27.653Z,79.94
2017-11-30T19:42:55.220Z,79.75
2017-11-30T19:45:22.910Z,79.59
2017-11-30T19:47:50.486Z,79.50
2017-11-30T19:50:17.937Z,79.55
2017-11-30T19:52:45.560Z,79.60
2017-11-30T19:55:13.126Z,79.49
2017-11-30T19:57:40.684Z,79.44
2017-11-30T20:00:08.280Z,79.54
2017-11-30T20:02:35.807Z,79.49
2017-11-30T20:05:03.309Z,79.42
2017-11-30T20:07:31.066Z,79.35
2017-11-30T20:09:58.624Z,79.41
2017-11-30T20:12:26.150Z,79.41
2017-11-30T20:14:53.734Z,79.44
2017-11-30T20:17:21.264Z,79.73
2017-11-30T20:19:48.765Z,79.75
2017-11-30T20:22:16.280Z,79.73
2017-11-30T20:24:43.967Z,79.84
2017-11-30T20:27:16.544Z,80.07
2017-11-30T20:29:44.047Z,79.92
2017-11-30T20:32:11.616Z,79.83
2017-11-30T20:34:39.131Z,79.81
2017-11-30T20:37:06.765Z,79.52
2017-11-30T20:39:34.525Z,79.41
2017-11-30T20:42:03.372Z,79.50
2017-11-30T20:44:30.948Z,79.57
2017-11-30T20:46:58.517Z,79.33
2017-11-30T20:49:26.309Z,79.37
2017-11-30T20:51:53.894Z,79.67
2017-11-30T20:54:21.363Z,79.70
2017-11-30T20:56:54.004Z,79.88
2017-11-30T20:59:21.641Z,80.05
2017-11-30T21:01:49.229Z,79.99
2017-11-30T21:04:16.700Z,80.12
2017-11-30T21:06:44.247Z,80.20
2017-11-30T21:09:12.324Z,80.14
2017-11-30T21:11:39.774Z,80.14
2017-11-30T21:14:07.244Z,80.25
2017-11-30T21:16:34.807Z,80.27
2017-11-30T21:19:02.280Z,80.29
2017-11-30T21:21:29.750Z,80.24
2017-11-30T21:23:57.256Z,80.21
2017-11-30T21:26:24.762Z,80.30
2017-11-30T21:28:52.260Z,80.33
2017-11-30T21:31:19.733Z,80.26
2017-11-30T21:33:47.229Z,80.18
2017-11-30T21:36:14.744Z,80.03
2017-11-30T21:38:42.194Z,80.01
2017-11-30T21:41:09.782Z,79.82
2017-11-30T21:43:37.313Z,79.78
2017-11-30T21:46:04.829Z,79.75
2017-11-30T21:48:33.129Z,79.72
2017-11-30T21:51:00.653Z,79.66
2017-11-30T21:53:28.131Z,79.67
2017-11-30T21:55:55.712Z,79.69
2017-11-30T21:58:23.154Z,79.59
2017-11-30T22:00:50.658Z,79.61
2017-11-30T22:03:18.199Z,79.61
2017-11-30T22:05:46.213Z,80.58
2017-11-30T22:08:13.750Z,79.98
2017-11-30T22:10:41.202Z,79.63
2017-11-30T22:13:08.755Z,79.56
2017-11-30T22:15:36.229Z,79.70
2017-11-30T22:18:03.727Z,79.46
2017-11-30T22:20:31.261Z,79.49
2017-11-30T22:22:58.785Z,79.48
2017-11-30T22:25:26.413Z,79.55
2017-11-30T22:27:53.937Z,79.57
2017-11-30T22:30:21.388Z,79.74
2017-11-30T22:32:48.939Z,79.91
2017-11-30T22:35:16.444Z,79.82
2017-11-30T22:37:43.999Z,79.78
2017-11-30T22:40:11.456Z,80.01
2017-11-30T22:42:38.912Z,80.03
2017-11-30T22:45:06.446Z,80.11
2017-11-30T22:47:33.932Z,80.52
2017-11-30T22:50:01.422Z,80.71
2017-11-30T22:52:28.919Z,80.83
2017-11-30T22:54:56.380Z,81.18
2017-11-30T22:57:23.831Z,81.42
2017-11-30T22:59:51.406Z,81.87
2017-11-30T23:02:18.892Z,82.03
2017-11-30T23:04:46.400Z,82.00
2017-11-30T23:07:13.937Z,81.98
2017-11-30T23:09:41.492Z,81.94
2017-11-30T23:12:08.985Z,82.00
2017-11-30T23:14:36.617Z,82.02
2017-11-30T23:17:04.442Z,81.79
2017-11-30T23:19:35.753Z,81.79
2017-11-30T23:22:03.304Z,81.64
2017-11-30T23:24:30.803Z,81.88
2017-11-30T23:27:08.072Z,81.90
2017-11-30T23:29:35.832Z,82.09
2017-11-30T23:32:03.350Z,82.10
2017-11-30T23:34:30.815Z,82.13
2017-11-30T23:36:58.407Z,82.21
2017-11-30T23:39:25.950Z,82.23
2017-11-30T23:41:53.617Z,82.51
2017-11-30T23:44:21.112Z,82.95
2017-11-30T23:46:48.757Z,83.09
2017-11-30T23:49:16.304Z,83.39
2017-11-30T23:51:43.793Z,83.56
2017-11-30T23:54:11.299Z,83.55
2017-11-30T23:56:39.105Z,83.74
2017-11-30T23:59:06.576Z,83.91
